createdAt,value
2023-03-15T04:32:19.514Z,100561.91
2023-03-15T04:35:06.028Z,100552.99
2023-03-15T04:37:49.458Z,100549.98
2023-03-15T04:40:49.186Z,100555.68
2023-03-15T04:43:33.708Z,100563.55
2023-03-15T04:46:32.602Z,100575.74
2023-03-15T04:49:23.112Z,100583.42
2023-03-15T04:52:06.127Z,100579.70
2023-03-15T04:54:52.629Z,100573.75
2023-03-15T04:57:37.784Z,100570.31
2023-03-15T05:00:29.528Z,100572.13
2023-03-15T05:03:04.446Z,100567.35
2023-03-15T05:05:58.998Z,100572.79
2023-03-15T05:08:36.355Z,100571.05
2023-03-15T05:11:17.614Z,100571.80
2023-03-15T05:13:52.096Z,100575.02
2023-03-15T05:16:39.867Z,100580.84
2023-03-15T05:19:35.522Z,100571.56
2023-03-15T05:22:10.196Z,100560.14
2023-03-15T05:24:54.289Z,100560.50
2023-03-15T05:27:37.433Z,100555.65
2023-03-15T05:30:29.597Z,100547.85
2023-03-15T05:33:20.253Z,100545.07
2023-03-15T05:36:05.526Z,100550.31
2023-03-15T05:38:54.195Z,100550.27
2023-03-15T05:41:31.187Z,100548.27
2023-03-15T05:44:19.252Z,100543.61
2023-03-15T05:47:05.898Z,100546.01
2023-03-15T05:49:53.725Z,100549.23
2023-03-15T05:53:00.787Z,100552.48
2023-03-15T05:55:39.076Z,100545.66
2023-03-15T05:58:17.262Z,100542.98
2023-03-15T06:01:24.568Z,100545.38
2023-03-15T06:04:02.994Z,100549.50
2023-03-15T06:06:33.669Z,100542.50
2023-03-15T06:09:06.298Z,100542.72
2023-03-15T06:11:35.397Z,100537.72
2023-03-15T06:14:04.409Z,100533.38
2023-03-15T06:16:44.111Z,100527.41
2023-03-15T06:19:13.282Z,100521.27
2023-03-15T06:21:41.720Z,100521.77
2023-03-15T06:24:23.416Z,100506.68
2023-03-15T06:26:51.915Z,100505.58
2023-03-15T06:29:22.100Z,100492.02
2023-03-15T06:31:53.794Z,100495.16
2023-03-15T06:34:22.761Z,100491.64
2023-03-15T06:36:53.466Z,100479.64
2023-03-15T06:39:22.184Z,100492.64
2023-03-15T06:41:53.684Z,100492.16
2023-03-15T06:44:23.585Z,100484.11
2023-03-15T06:46:57.502Z,100490.46
2023-03-15T06:49:29.035Z,100478.89
2023-03-15T06:51:57.879Z,100476.77
2023-03-15T06:54:26.506Z,100473.47
2023-03-15T06:56:56.460Z,100488.15
2023-03-15T06:59:25.172Z,100489.73
2023-03-15T07:01:53.692Z,100491.12
2023-03-15T07:04:22.332Z,100495.85
2023-03-15T07:06:50.874Z,100490.58
2023-03-15T07:09:19.707Z,100489.37
2023-03-15T07:11:48.221Z,100492.08
2023-03-15T07:14:16.939Z,100484.90
2023-03-15T07:16:47.553Z,100472.77
2023-03-15T07:19:16.405Z,100481.70
2023-03-15T07:21:45.541Z,100479.27
2023-03-15T07:24:14.746Z,100492.52
2023-03-15T07:26:43.205Z,100477.84
2023-03-15T07:29:13.854Z,100484.63
2023-03-15T07:31:42.882Z,100483.86
2023-03-15T07:34:11.400Z,100479.08
2023-03-15T07:36:41.741Z,100472.95
2023-03-15T07:39:12.006Z,100473.85
2023-03-15T07:41:42.539Z,100460.42
2023-03-15T07:44:23.452Z,100458.07
2023-03-15T07:46:52.316Z,100451.73
2023-03-15T07:49:21.357Z,100446.62
2023-03-15T07:51:49.777Z,100440.69
2023-03-15T07:54:20.603Z,100441.23
2023-03-15T07:56:49.060Z,100444.94
2023-03-15T07:59:17.438Z,100439.63
2023-03-15T08:01:46.786Z,100449.48
2023-03-15T08:04:15.752Z,100449.23
2023-03-15T08:06:46.077Z,100447.41
2023-03-15T08:09:14.804Z,100446.81
2023-03-15T08:11:44.668Z,100441.31
2023-03-15T08:14:17.628Z,100430.02
2023-03-15T08:16:46.806Z,100438.45
2023-03-15T08:19:15.712Z,100441.13
2023-03-15T08:21:47.416Z,100436.71
2023-03-15T08:24:15.920Z,100441.41
2023-03-15T08:30:59.708Z,100437.16
2023-03-15T08:33:30.478Z,100433.38
2023-03-15T08:35:58.812Z,100427.42
2023-03-15T08:38:27.710Z,100427.93
2023-03-15T08:40:57.010Z,100425.36
2023-03-15T08:43:25.727Z,100422.05
2023-03-15T08:46:01.205Z,100418.23
2023-03-15T08:48:31.878Z,100411.05
2023-03-15T08:51:06.171Z,100414.55
2023-03-15T08:53:35.968Z,100403.50
2023-03-15T08:56:04.962Z,100399.08
2023-03-15T08:58:34.723Z,100405.83
2023-03-15T09:01:05.207Z,100391.98
2023-03-15T09:03:34.606Z,100384.78
2023-03-15T09:06:04.156Z,100389.87
2023-03-15T09:08:34.075Z,100386.55
2023-03-15T09:11:02.836Z,100378.98
2023-03-15T09:13:31.303Z,100376.95
2023-03-15T09:16:00.693Z,100381.56
2023-03-15T09:18:29.314Z,100381.91
2023-03-15T09:20:57.926Z,100377.14
2023-03-15T09:23:26.960Z,100378.62
2023-03-15T09:30:04.555Z,100367.92
2023-03-15T09:32:37.264Z,100355.73
2023-03-15T09:35:06.524Z,100355.98
2023-03-15T09:37:35.712Z,100365.34
2023-03-15T09:40:04.974Z,100366.73
2023-03-15T09:42:38.760Z,100362.23
2023-03-15T09:45:11.295Z,100361.90
2023-03-15T09:47:46.033Z,100358.02
2023-03-15T09:50:26.048Z,100362.55
2023-03-15T09:53:14.705Z,100359.98
2023-03-15T09:55:43.718Z,100349.38
2023-03-15T09:58:14.778Z,100345.84
2023-03-15T10:01:09.491Z,100351.34
2023-03-15T10:03:47.342Z,100347.13
2023-03-15T10:06:19.118Z,100338.30
2023-03-15T10:08:49.558Z,100328.48
2023-03-15T10:11:18.278Z,100324.14
2023-03-15T10:13:49.395Z,100326.27
2023-03-15T10:16:23.887Z,100319.20
2023-03-15T10:19:14.178Z,100314.77
2023-03-15T10:21:57.265Z,100304.52
2023-03-15T10:24:32.333Z,100318.42
2023-03-15T10:27:04.784Z,100318.40
2023-03-15T10:29:35.250Z,100308.55
2023-03-15T10:32:03.667Z,100299.55
2023-03-15T10:34:32.979Z,100307.23
2023-03-15T10:37:06.595Z,100296.65
2023-03-15T10:39:35.705Z,100292.24
2023-03-15T10:42:05.251Z,100288.02
2023-03-15T10:44:35.114Z,100295.82
2023-03-15T10:47:22.064Z,100300.37
2023-03-15T10:49:57.044Z,100303.81
2023-03-15T10:52:35.377Z,100293.12
2023-03-15T10:55:07.916Z,100287.65
2023-03-15T10:57:40.869Z,100281.16
2023-03-15T11:00:24.958Z,100272.48
2023-03-15T11:03:24.048Z,100261.86
2023-03-15T11:05:54.820Z,100261.87
2023-03-15T11:08:24.463Z,100259.77
2023-03-15T11:10:59.699Z,100264.14
2023-03-15T11:13:29.971Z,100267.95
2023-03-15T11:16:06.036Z,100264.31
2023-03-15T11:18:37.917Z,100264.80
2023-03-15T11:21:07.755Z,100258.01
2023-03-15T11:23:38.734Z,100247.73
2023-03-15T11:26:10.798Z,100249.23
2023-03-15T11:28:46.058Z,100250.98
2023-03-15T11:31:14.685Z,100247.52
2023-03-15T11:33:44.350Z,100252.45
2023-03-15T11:36:14.714Z,100261.02
2023-03-15T11:38:47.124Z,100267.50
2023-03-15T11:41:36.069Z,100269.04
2023-03-15T11:44:11.136Z,100269.59
2023-03-15T11:46:41.630Z,100269.11
2023-03-15T11:49:36.690Z,100262.54
2023-03-15T11:52:05.168Z,100254.33
2023-03-15T11:54:34.723Z,100257.10
2023-03-15T11:57:04.277Z,100255.25
2023-03-15T11:59:42.442Z,100246.64
2023-03-15T12:02:11.436Z,100242.15
2023-03-15T12:04:39.975Z,100251.87
2023-03-15T12:07:16.196Z,100253.02
2023-03-15T12:09:47.975Z,100257.37
2023-03-15T12:12:27.265Z,100266.73
2023-03-15T12:15:09.179Z,100254.27
2023-03-15T12:17:38.859Z,100255.48
2023-03-15T12:20:18.680Z,100253.83
2023-03-15T12:22:55.759Z,100247.36
2023-03-15T12:25:35.354Z,100239.88
2023-03-15T12:28:09.103Z,100231.74
2023-03-15T12:30:41.271Z,100235.23
2023-03-15T12:33:16.201Z,100233.19
2023-03-15T12:35:44.699Z,100230.49
2023-03-15T12:38:20.242Z,100229.40
2023-03-15T12:40:50.791Z,100233.91
2023-03-15T12:43:55.865Z,100236.53
2023-03-15T12:46:47.603Z,100234.77
2023-03-15T12:49:18.986Z,100227.94
2023-03-15T12:51:59.333Z,100231.38
2023-03-15T12:54:46.221Z,100232.31
2023-03-15T12:57:15.737Z,100242.27
2023-03-15T13:00:13.329Z,100235.54
2023-03-15T13:03:04.328Z,100230.95
2023-03-15T13:05:37.777Z,100228.29
2023-03-15T13:08:06.725Z,100226.48
2023-03-15T13:10:39.321Z,100233.95
2023-03-15T13:13:11.068Z,100232.42
2023-03-15T13:15:43.148Z,100234.94
2023-03-15T13:18:18.293Z,100235.03
2023-03-15T13:20:50.251Z,100243.91
2023-03-15T13:23:26.163Z,100236.05
2023-03-15T13:26:00.111Z,100230.25
2023-03-15T13:28:37.473Z,100236.04
2023-03-15T13:31:17.983Z,100234.45
2023-03-15T13:33:49.592Z,100235.07
2023-03-15T13:36:19.579Z,100232.84
2023-03-15T13:38:51.836Z,100234.44
2023-03-15T13:41:27.234Z,100235.36
2023-03-15T13:43:57.007Z,100237.80
2023-03-15T13:46:27.112Z,100228.25
2023-03-15T13:48:56.568Z,100226.79
2023-03-15T13:51:25.609Z,100221.70
2023-03-15T13:53:57.267Z,100219.19
2023-03-15T13:56:47.025Z,100215.11
2023-03-15T13:59:17.734Z,100211.94
2023-03-15T14:01:46.273Z,100210.11
2023-03-15T14:04:16.615Z,100206.61
2023-03-15T14:06:46.068Z,100210.30
2023-03-15T14:09:22.102Z,100211.99
2023-03-15T14:12:07.573Z,100211.48
2023-03-15T14:14:37.166Z,100207.10
2023-03-15T14:17:18.864Z,100210.46
2023-03-15T14:19:55.196Z,100207.71
2023-03-15T14:22:24.016Z,100207.27
2023-03-15T14:24:57.505Z,100209.39
2023-03-15T14:27:26.702Z,100209.86
2023-03-15T14:29:58.844Z,100212.09
2023-03-15T14:32:31.526Z,100211.16
2023-03-15T14:34:59.982Z,100209.75
2023-03-15T14:37:35.935Z,100219.05
2023-03-15T14:40:25.788Z,100206.73
2023-03-15T14:42:54.280Z,100204.52
2023-03-15T14:45:22.664Z,100205.30
2023-03-15T14:47:57.050Z,100205.27
2023-03-15T14:50:28.435Z,100205.44
2023-03-15T14:52:57.155Z,100206.66
2023-03-15T14:55:28.234Z,100193.09
2023-03-15T14:57:57.287Z,100189.83
2023-03-15T15:00:27.173Z,100187.11
2023-03-15T15:02:56.308Z,100190.55
2023-03-15T15:05:26.450Z,100186.09
2023-03-15T15:08:04.569Z,100187.87
2023-03-15T15:10:34.941Z,100182.42
2023-03-15T15:13:06.902Z,100174.63
2023-03-15T15:15:53.645Z,100169.19
2023-03-15T15:18:23.918Z,100168.30
2023-03-15T15:20:56.310Z,100171.36
2023-03-15T15:23:29.194Z,100175.65
2023-03-15T15:25:58.748Z,100170.92
2023-03-15T15:28:35.358Z,100166.28
2023-03-15T15:31:07.467Z,100165.75
2023-03-15T15:33:45.739Z,100161.77
2023-03-15T15:36:22.088Z,100155.50
2023-03-15T15:38:50.790Z,100160.11
2023-03-15T15:41:26.129Z,100169.97
2023-03-15T15:43:56.701Z,100177.02
2023-03-15T15:46:25.419Z,100174.48
2023-03-15T15:48:54.861Z,100181.77
2023-03-15T15:51:33.322Z,100185.79
2023-03-15T15:54:05.597Z,100204.95
2023-03-15T15:56:40.435Z,100197.27
2023-03-15T15:59:10.058Z,100196.26
2023-03-15T16:01:49.258Z,100198.48
2023-03-15T16:04:26.070Z,100204.54
2023-03-15T16:06:56.858Z,100199.09
2023-03-15T16:09:25.802Z,100202.54
2023-03-15T16:11:56.436Z,100208.15
2023-03-15T16:14:25.672Z,100201.85
2023-03-15T16:16:54.357Z,100209.28
2023-03-15T16:19:24.363Z,100213.23
2023-03-15T16:21:54.622Z,100220.23
2023-03-15T16:24:25.580Z,100218.30
2023-03-15T16:26:58.798Z,100216.77
2023-03-15T16:29:36.676Z,100224.00
2023-03-15T16:32:17.634Z,100227.52
2023-03-15T16:34:49.981Z,100232.58
2023-03-15T16:37:19.908Z,100233.05
2023-03-15T16:39:50.788Z,100232.58
2023-03-15T16:42:20.366Z,100235.77
2023-03-15T16:44:48.861Z,100236.52
2023-03-15T16:47:17.282Z,100228.19
2023-03-15T16:49:47.067Z,100232.28
2023-03-15T16:52:18.355Z,100238.79
2023-03-15T16:54:48.406Z,100242.03
2023-03-15T16:57:19.627Z,100247.44
2023-03-15T16:59:47.851Z,100243.73
2023-03-15T17:02:24.016Z,100245.73
2023-03-15T17:04:53.155Z,100247.60
2023-03-15T17:07:25.977Z,100243.07
2023-03-15T17:09:56.931Z,100246.64
2023-03-15T17:12:27.109Z,100252.35
2023-03-15T17:14:59.132Z,100249.19
2023-03-15T17:17:28.889Z,100241.21
2023-03-15T17:20:13.156Z,100238.05
2023-03-15T17:22:42.826Z,100240.23
2023-03-15T17:25:12.044Z,100242.35
2023-03-15T17:27:41.753Z,100240.52
2023-03-15T17:30:17.937Z,100241.72
2023-03-15T17:32:46.883Z,100236.27
2023-03-15T17:35:16.098Z,100232.40
2023-03-15T17:37:45.048Z,100231.86
2023-03-15T17:40:23.233Z,100229.41
2023-03-15T17:42:51.940Z,100221.33
2023-03-15T17:45:28.058Z,100224.22
2023-03-15T17:47:57.062Z,100225.91
2023-03-15T17:50:26.562Z,100227.06
2023-03-15T17:52:55.893Z,100229.46
2023-03-15T17:55:25.378Z,100239.08
2023-03-15T17:57:56.181Z,100237.15
2023-03-15T18:00:25.301Z,100232.56
2023-03-15T18:02:55.899Z,100235.80
2023-03-15T18:05:25.753Z,100242.15
2023-03-15T18:08:00.635Z,100238.95
2023-03-15T18:10:36.507Z,100245.21
2023-03-15T18:13:05.056Z,100242.27
2023-03-15T18:15:37.863Z,100248.88
2023-03-15T18:18:08.416Z,100250.20
2023-03-15T18:20:37.619Z,100245.17
2023-03-15T18:23:07.806Z,100243.14
2023-03-15T18:25:36.511Z,100236.10
2023-03-15T18:28:06.242Z,100237.64
2023-03-15T18:30:35.284Z,100233.50
2023-03-15T18:33:05.968Z,100232.15
2023-03-15T18:35:35.620Z,100234.31
2023-03-15T18:38:05.491Z,100232.30
2023-03-15T18:40:33.995Z,100234.67
2023-03-15T18:43:05.702Z,100231.05
2023-03-15T18:45:35.231Z,100226.79
2023-03-15T18:48:04.652Z,100231.16
2023-03-15T18:50:33.884Z,100230.42
2023-03-15T18:53:03.919Z,100221.96
2023-03-15T18:55:35.282Z,100221.89
2023-03-15T18:58:06.719Z,100216.68
2023-03-15T19:00:41.832Z,100209.48
2023-03-15T19:03:11.509Z,100209.29
2023-03-15T19:05:40.305Z,100215.50
2023-03-15T19:08:09.839Z,100222.39
2023-03-15T19:10:38.301Z,100218.13
2023-03-15T19:13:07.389Z,100211.94
2023-03-15T19:15:36.369Z,100214.02
2023-03-15T19:18:08.397Z,100216.70
2023-03-15T19:20:40.891Z,100215.13
2023-03-15T19:23:09.703Z,100205.27
2023-03-15T19:25:42.285Z,100203.89
2023-03-15T19:28:11.438Z,100205.59
2023-03-15T19:30:46.231Z,100208.77
2023-03-15T19:33:16.597Z,100213.40
2023-03-15T19:35:46.304Z,100210.11
2023-03-15T19:38:15.887Z,100205.63
2023-03-15T19:40:51.654Z,100209.33
2023-03-15T19:43:20.253Z,100205.76
2023-03-15T19:45:48.888Z,100203.14
2023-03-15T19:48:18.505Z,100196.14
2023-03-15T19:50:47.896Z,100201.05
2023-03-15T19:53:16.386Z,100202.05
2023-03-15T19:55:47.348Z,100197.74
2023-03-15T19:58:15.872Z,100202.06
2023-03-15T20:00:44.594Z,100199.22
2023-03-15T20:03:13.272Z,100193.39
2023-03-15T20:05:41.645Z,100198.08
2023-03-15T20:08:11.444Z,100194.40
2023-03-15T20:10:41.961Z,100187.23
2023-03-15T20:13:10.768Z,100188.92
2023-03-15T20:15:39.904Z,100190.91
2023-03-15T20:18:13.151Z,100188.00
2023-03-15T20:20:42.616Z,100182.55
2023-03-15T20:23:14.138Z,100173.55
2023-03-15T20:25:43.550Z,100172.90
2023-03-15T20:28:12.764Z,100177.72
2023-03-15T20:30:43.277Z,100175.14
2023-03-15T20:33:13.194Z,100172.84
2023-03-15T20:35:41.514Z,100168.23
2023-03-15T20:38:14.004Z,100163.63
2023-03-15T20:40:47.544Z,100169.36
2023-03-15T20:43:20.047Z,100164.89
2023-03-15T20:45:49.335Z,100168.86
2023-03-15T20:48:17.687Z,100172.00
2023-03-15T20:50:47.983Z,100164.08
2023-03-15T20:53:16.827Z,100162.05
2023-03-15T20:55:49.601Z,100169.67
2023-03-15T20:58:18.766Z,100170.14
2023-03-15T21:00:47.743Z,100169.45
2023-03-15T21:03:16.643Z,100167.77
2023-03-15T21:05:46.180Z,100163.88
2023-03-15T21:08:20.198Z,100152.34
2023-03-15T21:10:48.692Z,100152.65
2023-03-15T21:13:17.647Z,100152.85
2023-03-15T21:15:46.688Z,100155.98
2023-03-15T21:18:17.121Z,100159.46
2023-03-15T21:20:45.573Z,100160.90
2023-03-15T21:23:15.117Z,100158.82
2023-03-15T21:25:43.965Z,100166.79
2023-03-15T21:28:15.636Z,100169.84
2023-03-15T21:30:46.570Z,100162.90
2023-03-15T21:33:15.145Z,100155.39
2023-03-15T21:35:43.548Z,100153.72
2023-03-15T21:38:13.662Z,100149.48
2023-03-15T21:40:45.102Z,100149.68
2023-03-15T21:43:14.144Z,100164.25
2023-03-15T21:45:42.721Z,100164.85
2023-03-15T21:48:13.083Z,100158.73
2023-03-15T21:50:41.787Z,100158.20
2023-03-15T21:53:10.368Z,100149.96
2023-03-15T21:55:39.762Z,100152.75
2023-03-15T21:58:07.955Z,100144.11
2023-03-15T22:00:37.409Z,100129.70
2023-03-15T22:03:06.046Z,100135.05
2023-03-15T22:05:34.809Z,100136.35
2023-03-15T22:08:03.526Z,100124.46
2023-03-15T22:10:31.861Z,100116.69
2023-03-15T22:13:00.966Z,100114.59
2023-03-15T22:15:30.983Z,100115.17
2023-03-15T22:17:59.480Z,100117.90
2023-03-15T22:20:35.020Z,100115.73
2023-03-15T22:23:04.638Z,100109.09
2023-03-15T22:25:33.046Z,100110.48
2023-03-15T22:28:02.212Z,100114.77
2023-03-15T22:30:31.706Z,100118.41
2023-03-15T22:33:03.767Z,100126.20
2023-03-15T22:35:32.609Z,100130.48
2023-03-15T22:38:01.397Z,100129.20
2023-03-15T22:40:30.608Z,100130.36
2023-03-15T22:43:00.050Z,100126.71
2023-03-15T22:45:30.547Z,100126.63
2023-03-15T22:47:58.971Z,100121.70
2023-03-15T22:50:31.093Z,100122.27
2023-03-15T22:53:00.938Z,100118.80
2023-03-15T22:55:29.724Z,100122.18
2023-03-15T22:57:58.031Z,100123.27
2023-03-15T23:00:27.107Z,100112.55
2023-03-15T23:02:55.886Z,100099.96
2023-03-15T23:05:24.234Z,100089.61
2023-03-15T23:07:52.363Z,100091.59
2023-03-15T23:10:21.294Z,100091.99
2023-03-15T23:12:49.705Z,100092.81
2023-03-15T23:15:18.641Z,100097.53
2023-03-15T23:17:47.292Z,100095.70
2023-03-15T23:20:16.855Z,100093.13
2023-03-15T23:22:45.381Z,100095.04
2023-03-15T23:25:14.177Z,100099.98
2023-03-15T23:27:42.521Z,100094.84
2023-03-15T23:30:13.546Z,100079.05
2023-03-15T23:32:42.916Z,100080.20
2023-03-15T23:35:12.558Z,100078.37
2023-03-15T23:37:41.600Z,100075.05
2023-03-15T23:40:15.457Z,100076.89
2023-03-15T23:42:45.601Z,100072.77
2023-03-15T23:45:15.479Z,100070.56
2023-03-15T23:47:47.369Z,100075.92
2023-03-15T23:50:16.401Z,100069.70
2023-03-15T23:52:44.722Z,100066.89
2023-03-15T23:55:13.554Z,100067.61
2023-03-15T23:57:42.280Z,100073.73
